Terminal Aerodrome Forecast
Issued by NWS

Home | Current Version | Previous Version | Text Only | Print | Product List | Glossary On
Versions: 1 2 3 4 5 6 7 8 9 10 11 12 13 14
000
FTUS45 KPIH 302335
TAFSUN
TAF
KSUN 302335Z 3100/3124 19010G20KT P6SM SCT130
     FM310100 24011KT P6SM FEW130
     FM310500 31009KT P6SM SKC
     FM311800 17010KT P6SM SCT180
      AMD LTD TO CLD VIS AND WIND 3105/3113=

USA.gov is the U.S. government's official web portal to all federal, state and local government web resources and services.